createdAt,value
2022-09-23T00:00:37.164Z,3.50
2022-09-23T00:03:06.191Z,3.53
2022-09-23T00:05:34.146Z,3.83
2022-09-23T00:08:01.925Z,3.67
2022-09-23T00:10:31.262Z,3.30
2022-09-23T00:12:59.053Z,3.00
2022-09-23T00:15:27.086Z,4.23
2022-09-23T00:17:54.731Z,3.40
2022-09-23T00:20:23.813Z,5.43
2022-09-23T00:22:51.407Z,5.33
2022-09-23T00:25:19.186Z,3.30
2022-09-23T00:27:46.786Z,9.90
2022-09-23T00:30:14.561Z,3.70
2022-09-23T00:32:42.185Z,3.40
2022-09-23T00:35:10.605Z,3.27
2022-09-23T00:37:39.637Z,4.10
2022-09-23T00:40:08.562Z,3.40
2022-09-23T00:42:36.165Z,3.80
2022-09-23T00:45:04.250Z,3.17
2022-09-23T00:47:33.499Z,5.00
2022-09-23T00:50:04.536Z,3.50
2022-09-23T00:52:33.244Z,3.17
2022-09-23T00:55:03.371Z,3.20
2022-09-23T00:57:31.228Z,4.13
2022-09-23T00:59:58.861Z,3.47
2022-09-23T01:02:26.647Z,3.70
2022-09-23T01:04:54.254Z,4.20
2022-09-23T01:07:23.013Z,4.90
2022-09-23T01:09:50.635Z,3.60
2022-09-23T01:12:37.299Z,3.80
2022-09-23T01:15:10.224Z,4.17
2022-09-23T01:17:40.746Z,3.03
2022-09-23T01:20:38.470Z,3.20
2022-09-23T01:23:14.965Z,4.23
2022-09-23T01:25:52.206Z,2.83
2022-09-23T01:28:30.107Z,4.33
2022-09-23T01:31:01.401Z,2.80
2022-09-23T01:33:32.103Z,2.90
2022-09-23T01:36:05.276Z,3.73
2022-09-23T01:38:39.859Z,3.13
2022-09-23T01:41:14.459Z,2.80
2022-09-23T01:43:44.035Z,3.07
2022-09-23T01:46:15.592Z,4.70
2022-09-23T01:48:45.849Z,3.30
2022-09-23T01:51:17.162Z,3.13
2022-09-23T01:53:46.324Z,3.07
2022-09-23T01:56:16.133Z,2.87
2022-09-23T01:58:46.323Z,2.60
2022-09-23T02:01:20.433Z,2.80
2022-09-23T02:03:50.008Z,3.47
2022-09-23T02:06:20.195Z,2.77
2022-09-23T02:08:48.743Z,3.03
2022-09-23T02:11:19.670Z,2.87
2022-09-23T02:13:49.866Z,2.37
2022-09-23T02:16:23.530Z,2.70
2022-09-23T02:18:54.991Z,2.90
2022-09-23T02:21:23.037Z,3.20
2022-09-23T02:23:51.541Z,2.83
2022-09-23T02:26:21.616Z,2.77
2022-09-23T02:28:57.330Z,2.97
2022-09-23T02:31:32.392Z,2.60
2022-09-23T02:34:02.519Z,2.50
2022-09-23T02:36:32.198Z,2.27
2022-09-23T02:39:01.189Z,2.43
2022-09-23T02:41:30.047Z,2.17
2022-09-23T02:43:59.749Z,2.47
2022-09-23T02:46:27.637Z,2.30
2022-09-23T02:48:57.805Z,5.13
2022-09-23T02:51:26.248Z,2.33
2022-09-23T02:53:56.244Z,2.53
2022-09-23T02:56:23.947Z,4.30
2022-09-23T02:58:53.460Z,2.00
2022-09-23T03:01:27.121Z,3.00
2022-09-23T03:03:59.677Z,1.93
2022-09-23T03:06:29.802Z,3.87
2022-09-23T03:08:59.433Z,4.43
2022-09-23T03:11:27.115Z,2.47
2022-09-23T03:14:06.605Z,3.33
2022-09-23T03:16:41.016Z,4.43
2022-09-23T03:19:19.756Z,2.23
2022-09-23T03:21:50.216Z,2.87
2022-09-23T03:24:18.014Z,2.20
2022-09-23T03:26:46.853Z,2.60
2022-09-23T03:29:14.432Z,3.43
2022-09-23T03:31:42.504Z,2.90
2022-09-23T03:34:14.482Z,2.93
2022-09-23T03:36:53.928Z,2.30
2022-09-23T03:39:27.820Z,2.43
2022-09-23T03:41:56.768Z,2.23
2022-09-23T03:44:24.633Z,4.57
2022-09-23T03:46:52.470Z,3.57
2022-09-23T03:49:27.293Z,2.70
2022-09-23T03:51:54.897Z,2.90
2022-09-23T03:54:22.555Z,2.40
2022-09-23T03:56:50.111Z,2.67
2022-09-23T03:59:17.869Z,2.70
2022-09-23T04:01:45.982Z,2.80
2022-09-23T04:04:13.919Z,3.40
2022-09-23T04:06:42.909Z,3.00
2022-09-23T04:09:10.708Z,2.60
2022-09-23T04:11:38.296Z,3.23
2022-09-23T04:14:06.202Z,4.07
2022-09-23T04:16:33.876Z,3.70
2022-09-23T04:19:01.773Z,2.80
2022-09-23T04:21:30.142Z,3.30
2022-09-23T04:23:59.222Z,3.60
2022-09-23T04:26:26.795Z,2.90
2022-09-23T04:28:55.244Z,3.20
2022-09-23T04:31:23.614Z,3.23
2022-09-23T04:33:51.506Z,6.07
2022-09-23T04:36:19.065Z,4.63
2022-09-23T04:38:46.926Z,3.53
2022-09-23T04:41:15.951Z,6.03
2022-09-23T04:48:52.721Z,3.70
2022-09-23T04:51:21.230Z,3.70
2022-09-23T04:53:50.087Z,4.63
2022-09-23T04:56:19.738Z,3.60
2022-09-23T04:58:47.695Z,4.57
2022-09-23T05:01:16.257Z,3.87
2022-09-23T05:03:44.276Z,3.90
2022-09-23T05:06:13.673Z,3.73
2022-09-23T05:08:41.718Z,4.00
2022-09-23T05:11:09.338Z,3.83
2022-09-23T05:13:38.469Z,3.50
2022-09-23T05:16:08.114Z,6.97
2022-09-23T05:18:36.392Z,4.13
2022-09-23T05:21:04.316Z,3.93
2022-09-23T05:23:31.920Z,4.07
2022-09-23T05:26:00.427Z,4.17
2022-09-23T05:28:29.871Z,4.17
2022-09-23T05:31:04.216Z,3.93
2022-09-23T05:33:32.486Z,4.90
2022-09-23T05:36:00.243Z,9.63
2022-09-23T05:38:28.625Z,7.87
2022-09-23T05:40:57.520Z,5.30
2022-09-23T05:43:25.143Z,5.13
2022-09-23T05:46:07.294Z,13.50
2022-09-23T05:48:36.377Z,4.47
2022-09-23T05:51:04.169Z,6.13
2022-09-23T05:53:32.192Z,5.93
2022-09-23T05:55:59.887Z,4.30
2022-09-23T05:58:28.104Z,4.80
2022-09-23T06:00:56.691Z,4.23
2022-09-23T06:03:26.242Z,4.67
2022-09-23T06:05:55.194Z,5.30
2022-09-23T06:08:23.941Z,5.23
2022-09-23T06:10:54.306Z,4.83
2022-09-23T06:13:22.370Z,7.33
2022-09-23T06:15:52.151Z,4.20
2022-09-23T06:18:19.763Z,4.73
2022-09-23T06:20:49.069Z,4.70
2022-09-23T06:23:16.620Z,4.47
2022-09-23T06:25:45.537Z,5.23
2022-09-23T06:28:13.173Z,7.13
2022-09-23T06:30:40.905Z,5.17
2022-09-23T06:33:08.468Z,5.53
2022-09-23T06:35:36.263Z,5.33
2022-09-23T06:38:05.519Z,4.53
2022-09-23T06:40:33.307Z,7.37
2022-09-23T06:43:01.404Z,5.03
2022-09-23T06:45:29.410Z,7.27
2022-09-23T06:47:57.723Z,5.13
2022-09-23T06:50:25.656Z,7.43
2022-09-23T06:52:55.998Z,5.07
2022-09-23T06:55:27.212Z,5.23
2022-09-23T06:57:54.840Z,6.20
2022-09-23T07:00:22.589Z,4.83
2022-09-23T07:02:50.203Z,5.20
2022-09-23T07:05:18.072Z,5.83
2022-09-23T07:07:45.713Z,11.33
2022-09-23T07:10:13.440Z,9.33
2022-09-23T07:12:42.465Z,8.07
2022-09-23T07:15:11.427Z,6.33
2022-09-23T07:17:39.016Z,5.93
2022-09-23T07:20:07.566Z,6.13
2022-09-23T07:22:35.889Z,6.27
2022-09-23T07:25:04.370Z,5.93
2022-09-23T07:27:31.951Z,6.13
2022-09-23T07:30:01.175Z,5.43
2022-09-23T07:32:34.504Z,6.82
2022-09-23T07:35:08.315Z,6.28
2022-09-23T07:37:36.045Z,5.65
2022-09-23T07:40:03.729Z,4.07
2022-09-23T07:42:31.566Z,5.38
2022-09-23T07:44:59.134Z,3.28
2022-09-23T07:47:28.106Z,3.88
2022-09-23T07:49:55.885Z,4.22
2022-09-23T07:52:23.477Z,4.47
2022-09-23T07:54:51.553Z,4.68
2022-09-23T07:57:19.171Z,3.88
2022-09-23T07:59:46.920Z,3.45
2022-09-23T08:02:15.424Z,3.83
2022-09-23T08:04:44.680Z,2.97
2022-09-23T08:07:13.285Z,5.68
2022-09-23T08:09:43.272Z,4.38
2022-09-23T08:12:15.755Z,3.45
2022-09-23T08:14:43.921Z,3.05
2022-09-23T08:17:12.415Z,8.20
2022-09-23T08:19:40.187Z,3.20
2022-09-23T08:22:09.514Z,2.53
2022-09-23T08:24:38.371Z,2.40
2022-09-23T08:27:06.277Z,2.83
2022-09-23T08:29:34.545Z,2.67
2022-09-23T08:32:02.619Z,4.88
2022-09-23T08:34:30.400Z,5.95
2022-09-23T08:36:57.992Z,2.80
2022-09-23T08:39:27.108Z,2.85
2022-09-23T08:42:04.258Z,2.30
2022-09-23T08:44:35.805Z,1.95
2022-09-23T08:47:11.796Z,1.98
2022-09-23T08:49:42.036Z,2.13
2022-09-23T08:52:12.987Z,2.38
2022-09-23T08:54:42.105Z,2.28
2022-09-23T08:57:10.791Z,2.13
2022-09-23T08:59:41.489Z,1.70
2022-09-23T09:02:14.074Z,3.97
2022-09-23T09:04:44.281Z,3.20
2022-09-23T09:10:06.075Z,2.72
2022-09-23T09:12:36.169Z,2.20
2022-09-23T09:15:06.168Z,2.10
2022-09-23T09:17:38.468Z,1.95
2022-09-23T09:20:15.004Z,2.72
2022-09-23T09:22:46.271Z,4.07
2022-09-23T09:25:20.526Z,2.08
2022-09-23T09:27:48.680Z,2.10
2022-09-23T09:30:16.848Z,2.17
2022-09-23T09:32:48.413Z,1.85
2022-09-23T09:35:26.127Z,2.60
2022-09-23T09:37:53.849Z,2.10
2022-09-23T09:40:22.928Z,2.13
2022-09-23T09:42:51.380Z,2.20
2022-09-23T09:45:25.057Z,2.70
2022-09-23T09:47:57.295Z,2.50
2022-09-23T09:50:43.644Z,1.90
2022-09-23T09:53:25.540Z,5.18
2022-09-23T09:56:04.895Z,1.80
2022-09-23T09:58:43.031Z,2.08
2022-09-23T10:01:22.671Z,3.20
2022-09-23T10:03:53.058Z,2.67
2022-09-23T10:06:25.956Z,1.83
2022-09-23T10:09:13.577Z,1.90
2022-09-23T10:12:04.535Z,2.95
2022-09-23T10:14:32.197Z,1.67
2022-09-23T10:17:05.590Z,2.00
2022-09-23T10:19:34.010Z,2.03
2022-09-23T10:22:04.796Z,2.08
2022-09-23T10:24:37.307Z,1.83
2022-09-23T10:27:11.807Z,2.05
2022-09-23T10:29:40.253Z,1.80
2022-09-23T10:32:21.810Z,3.08
2022-09-23T10:34:51.525Z,1.90
2022-09-23T10:37:20.706Z,2.65
2022-09-23T10:40:02.443Z,2.03
2022-09-23T10:42:53.790Z,1.95
2022-09-23T10:45:43.238Z,2.75
2022-09-23T10:48:14.846Z,2.17
2022-09-23T10:50:44.857Z,2.20
2022-09-23T10:53:16.645Z,2.42
2022-09-23T10:55:51.920Z,1.92
2022-09-23T10:58:50.480Z,2.10
2022-09-23T11:01:26.640Z,1.95
2022-09-23T11:04:39.016Z,1.88
2022-09-23T11:07:14.212Z,2.10
2022-09-23T11:09:53.069Z,2.08
2022-09-23T11:12:29.742Z,2.55
2022-09-23T11:15:07.605Z,1.75
2022-09-23T11:18:11.639Z,4.72
2022-09-23T11:20:49.995Z,1.83
2022-09-23T11:23:37.647Z,2.13
2022-09-23T11:26:10.543Z,1.88
2022-09-23T11:29:02.353Z,2.00
2022-09-23T11:31:37.286Z,1.98
2022-09-23T11:34:26.371Z,1.88
2022-09-23T11:36:58.016Z,1.88
2022-09-23T11:39:28.437Z,1.77
2022-09-23T11:41:57.205Z,1.70
2022-09-23T11:44:27.661Z,3.38
2022-09-23T11:46:57.118Z,2.28
2022-09-23T11:49:29.027Z,1.83
2022-09-23T11:52:02.973Z,2.70
2022-09-23T11:54:32.372Z,1.50
2022-09-23T11:57:01.338Z,4.30
2022-09-23T11:59:39.962Z,1.80
2022-09-23T12:02:21.807Z,2.25
2022-09-23T12:04:58.541Z,1.88
2022-09-23T12:07:30.567Z,1.70
2022-09-23T12:10:00.169Z,1.92
2022-09-23T12:12:31.338Z,2.35
2022-09-23T12:15:01.481Z,2.58
2022-09-23T12:17:47.247Z,2.00
2022-09-23T12:20:28.117Z,1.42
2022-09-23T12:23:03.993Z,3.53
2022-09-23T12:25:36.022Z,2.53
2022-09-23T12:28:04.973Z,2.30
2022-09-23T12:30:33.936Z,1.60
2022-09-23T12:33:08.905Z,1.50
2022-09-23T12:35:39.959Z,1.50
2022-09-23T12:38:14.821Z,1.20
2022-09-23T12:40:44.432Z,1.88
2022-09-23T12:43:19.097Z,2.47
2022-09-23T12:45:48.086Z,1.30
2022-09-23T12:48:45.506Z,1.60
2022-09-23T12:51:20.224Z,1.90
2022-09-23T12:54:24.369Z,2.15
2022-09-23T12:57:02.348Z,3.13
2022-09-23T12:59:31.709Z,2.10
2022-09-23T13:01:59.571Z,1.90
2022-09-23T13:05:03.645Z,1.65
2022-09-23T13:07:33.936Z,1.90
2022-09-23T13:10:08.918Z,2.65
2022-09-23T13:12:39.283Z,2.72
2022-09-23T13:15:15.814Z,2.00
2022-09-23T13:17:43.482Z,2.20
2022-09-23T13:20:36.452Z,1.83
2022-09-23T13:23:19.180Z,2.05
2022-09-23T13:25:48.457Z,4.88
2022-09-23T13:28:33.269Z,1.67
2022-09-23T13:31:05.256Z,1.85
2022-09-23T13:33:38.309Z,2.72
2022-09-23T13:36:12.062Z,2.13
2022-09-23T13:38:39.878Z,3.20
2022-09-23T13:41:13.680Z,2.78
2022-09-23T13:43:43.574Z,2.90
2022-09-23T13:46:15.194Z,2.50
2022-09-23T13:48:45.410Z,2.28
2022-09-23T13:51:18.901Z,2.60
2022-09-23T13:53:51.398Z,2.40
2022-09-23T13:56:20.869Z,2.33
2022-09-23T13:58:48.895Z,4.43
2022-09-23T14:01:23.032Z,5.00
2022-09-23T14:03:51.481Z,3.47
2022-09-23T14:06:19.386Z,3.28
2022-09-23T14:08:48.350Z,3.33
2022-09-23T14:11:17.111Z,2.90
2022-09-23T14:13:47.160Z,2.53
2022-09-23T14:16:15.896Z,4.10
2022-09-23T14:18:45.576Z,2.80
2022-09-23T14:21:34.835Z,2.60
2022-09-23T14:24:16.595Z,2.35
2022-09-23T14:26:45.676Z,4.15
2022-09-23T14:29:17.570Z,3.35
2022-09-23T14:31:56.885Z,3.00
2022-09-23T14:34:41.875Z,6.25
2022-09-23T14:37:44.991Z,3.95
2022-09-23T14:40:15.268Z,3.97
2022-09-23T14:42:45.276Z,3.30
2022-09-23T14:45:17.980Z,3.33
2022-09-23T14:47:48.303Z,3.00
2022-09-23T14:50:35.235Z,4.95
2022-09-23T14:53:03.128Z,4.35
2022-09-23T14:55:31.373Z,3.20
2022-09-23T14:58:03.497Z,3.33
2022-09-23T15:00:32.751Z,3.53
2022-09-23T15:03:01.485Z,3.10
2022-09-23T15:05:33.595Z,3.40
2022-09-23T15:08:02.272Z,3.30
2022-09-23T15:10:33.427Z,4.93
2022-09-23T15:13:05.692Z,3.57
2022-09-23T15:15:35.777Z,3.23
2022-09-23T15:18:07.686Z,7.10
2022-09-23T15:20:36.475Z,4.67
2022-09-23T15:23:04.375Z,3.93
2022-09-23T15:25:33.603Z,3.03
2022-09-23T15:28:04.605Z,5.43
2022-09-23T15:30:35.616Z,3.37
2022-09-23T15:33:09.756Z,3.10
2022-09-23T15:35:40.691Z,7.33
2022-09-23T15:38:10.422Z,4.30
2022-09-23T15:40:39.486Z,3.83
2022-09-23T15:43:20.509Z,3.33
2022-09-23T15:45:52.767Z,4.27
2022-09-23T15:48:22.691Z,3.30
2022-09-23T15:50:50.840Z,3.97
2022-09-23T15:53:19.874Z,4.33
2022-09-23T15:55:47.629Z,4.67
2022-09-23T15:58:15.326Z,2.80
2022-09-23T16:00:43.070Z,4.20
2022-09-23T16:03:13.771Z,6.13
2022-09-23T16:05:41.591Z,2.60
2022-09-23T16:08:10.481Z,6.27
2022-09-23T16:10:38.375Z,3.10
2022-09-23T16:13:07.722Z,4.97
2022-09-23T16:15:35.424Z,5.00
2022-09-23T16:18:03.106Z,4.00
2022-09-23T16:20:32.128Z,4.80
2022-09-23T16:23:00.703Z,3.40
2022-09-23T16:25:30.070Z,3.43
2022-09-23T16:27:58.104Z,4.90
2022-09-23T16:30:26.078Z,3.30
2022-09-23T16:32:53.761Z,3.10
2022-09-23T16:35:21.688Z,3.10
2022-09-23T16:37:51.129Z,3.27
2022-09-23T16:40:20.782Z,3.13
2022-09-23T16:42:48.615Z,3.30
2022-09-23T16:45:17.880Z,3.70
2022-09-23T16:47:46.211Z,4.47
2022-09-23T16:50:14.163Z,5.73
2022-09-23T16:52:42.026Z,5.47
2022-09-23T16:55:11.828Z,4.10
2022-09-23T16:57:39.634Z,3.57
2022-09-23T17:00:26.752Z,3.17
2022-09-23T17:03:11.298Z,3.00
2022-09-23T17:05:39.064Z,4.73
2022-09-23T17:08:07.731Z,3.43
2022-09-23T17:10:37.094Z,2.90
2022-09-23T17:13:04.838Z,2.77
2022-09-23T17:15:32.568Z,2.97
2022-09-23T17:18:00.203Z,2.40
2022-09-23T17:20:27.864Z,2.30
2022-09-23T17:22:56.280Z,2.30
2022-09-23T17:25:24.027Z,2.77
2022-09-23T17:27:53.601Z,3.20
2022-09-23T17:30:21.592Z,2.50
2022-09-23T17:32:49.320Z,3.33
2022-09-23T17:35:17.421Z,4.27
2022-09-23T17:37:46.748Z,4.60
2022-09-23T17:40:14.653Z,5.07
2022-09-23T17:42:42.495Z,4.23
2022-09-23T17:45:12.412Z,6.47
2022-09-23T17:47:41.777Z,6.27
2022-09-23T17:50:10.230Z,4.20
2022-09-23T17:52:37.889Z,3.90
2022-09-23T17:55:06.678Z,4.33
2022-09-23T17:57:37.411Z,3.07
2022-09-23T18:00:06.109Z,3.37
2022-09-23T18:02:35.304Z,2.87
2022-09-23T18:05:03.081Z,3.67
2022-09-23T18:07:30.789Z,3.60
2022-09-23T18:09:58.598Z,5.40
2022-09-23T18:12:26.528Z,8.60
2022-09-23T18:14:54.335Z,6.00
2022-09-23T18:17:22.142Z,3.60
2022-09-23T18:19:51.492Z,5.33
2022-09-23T18:22:19.449Z,3.60
2022-09-23T18:24:47.507Z,4.47
2022-09-23T18:27:22.229Z,4.10
2022-09-23T18:29:50.562Z,6.70
2022-09-23T18:32:18.822Z,4.97
2022-09-23T18:34:47.172Z,4.30
2022-09-23T18:37:16.824Z,8.47
2022-09-23T18:39:44.988Z,4.77
2022-09-23T18:42:13.828Z,3.83
2022-09-23T18:44:41.733Z,5.13
2022-09-23T18:47:29.667Z,7.53
2022-09-23T18:50:14.978Z,6.33
2022-09-23T18:52:44.161Z,11.10
2022-09-23T18:55:12.692Z,8.10
2022-09-23T18:57:41.161Z,7.90
2022-09-23T19:00:10.405Z,11.20
2022-09-23T19:02:38.159Z,15.27
2022-09-23T19:05:06.890Z,11.23
2022-09-23T19:07:34.711Z,22.87
2022-09-23T19:10:04.336Z,11.97
2022-09-23T19:12:32.197Z,11.30
2022-09-23T19:15:00.229Z,11.83
2022-09-23T19:17:28.155Z,8.07
2022-09-23T19:19:56.150Z,8.47
2022-09-23T19:22:23.932Z,8.10
2022-09-23T19:27:27.260Z,7.37
2022-09-23T19:29:54.951Z,6.23
2022-09-23T19:32:24.372Z,7.00
2022-09-23T19:34:51.954Z,11.17
2022-09-23T19:37:20.937Z,10.87
2022-09-23T19:39:50.022Z,8.50
2022-09-23T19:42:18.304Z,9.10
2022-09-23T19:44:50.196Z,8.10
2022-09-23T19:47:17.993Z,8.00
2022-09-23T19:49:45.665Z,9.40
2022-09-23T19:52:13.255Z,12.03
2022-09-23T19:54:40.857Z,8.93
2022-09-23T19:57:09.445Z,8.13
2022-09-23T19:59:38.459Z,7.20
2022-09-23T20:02:07.475Z,8.80
2022-09-23T20:04:35.378Z,10.07
2022-09-23T20:07:04.140Z,7.17
2022-09-23T20:09:31.900Z,8.07
2022-09-23T20:12:02.411Z,11.10
2022-09-23T20:14:31.267Z,9.00
2022-09-23T20:16:59.989Z,9.77
2022-09-23T20:19:29.078Z,12.20
2022-09-23T20:22:10.659Z,8.87
2022-09-23T20:24:38.245Z,8.37
2022-09-23T20:27:10.786Z,15.23
2022-09-23T20:29:38.498Z,9.13
2022-09-23T20:32:06.081Z,11.73
2022-09-23T20:34:35.093Z,11.33
2022-09-23T20:37:04.226Z,12.00
2022-09-23T20:39:32.011Z,11.37
2022-09-23T20:42:02.580Z,12.87
2022-09-23T20:44:30.191Z,11.67
2022-09-23T20:46:57.780Z,10.03
2022-09-23T20:49:25.458Z,11.67
2022-09-23T20:51:54.368Z,10.53
2022-09-23T20:54:21.988Z,10.73
2022-09-23T20:56:49.563Z,13.77
2022-09-23T20:59:17.881Z,12.67
2022-09-23T21:01:46.482Z,11.70
2022-09-23T21:04:14.177Z,9.70
2022-09-23T21:06:41.751Z,11.20
2022-09-23T21:09:10.736Z,9.57
2022-09-23T21:11:38.289Z,11.77
2022-09-23T21:14:06.146Z,9.63
2022-09-23T21:16:33.969Z,9.57
2022-09-23T21:19:02.876Z,11.63
2022-09-23T21:21:30.532Z,9.90
2022-09-23T21:24:17.316Z,9.93
2022-09-23T21:26:50.193Z,8.60
2022-09-23T21:29:17.963Z,18.27
2022-09-23T21:31:46.391Z,8.13
2022-09-23T21:34:14.514Z,8.13
2022-09-23T21:36:43.970Z,8.27
2022-09-23T21:39:12.010Z,8.07
2022-09-23T21:41:39.877Z,8.50
2022-09-23T21:44:09.056Z,12.27
2022-09-23T21:46:36.849Z,9.33
2022-09-23T21:49:04.956Z,8.37
2022-09-23T21:51:34.098Z,8.77
2022-09-23T21:54:02.206Z,8.33
2022-09-23T21:56:31.245Z,8.03
2022-09-23T21:58:59.643Z,8.77
2022-09-23T22:01:29.775Z,13.00
2022-09-23T22:03:58.371Z,10.87
2022-09-23T22:06:27.115Z,7.33
2022-09-23T22:08:55.769Z,9.57
2022-09-23T22:11:41.723Z,8.80
2022-09-23T22:14:11.612Z,8.13
2022-09-23T22:16:41.631Z,10.33
2022-09-23T22:19:09.360Z,8.30
2022-09-23T22:21:38.755Z,8.50
2022-09-23T22:24:07.714Z,8.93
2022-09-23T22:26:36.010Z,8.97
2022-09-23T22:29:28.067Z,7.53
2022-09-23T22:32:14.708Z,10.60
2022-09-23T22:34:50.415Z,9.40
2022-09-23T22:37:20.240Z,8.90
2022-09-23T22:39:48.022Z,9.10
2022-09-23T22:42:15.871Z,9.27
2022-09-23T22:44:43.504Z,8.17
2022-09-23T22:47:12.473Z,9.10
2022-09-23T22:49:40.728Z,8.77
2022-09-23T22:52:08.363Z,12.30
2022-09-23T22:54:36.330Z,9.73
2022-09-23T22:57:05.053Z,9.43
2022-09-23T22:59:32.669Z,10.83
2022-09-23T23:02:02.300Z,10.03
2022-09-23T23:04:31.694Z,10.10
2022-09-23T23:06:59.496Z,10.27
2022-09-23T23:09:27.226Z,9.07
2022-09-23T23:11:54.867Z,10.07
2022-09-23T23:14:22.665Z,10.63
2022-09-23T23:16:50.645Z,9.10
2022-09-23T23:19:19.059Z,8.67
2022-09-23T23:21:48.140Z,10.63
2022-09-23T23:24:16.456Z,8.83
2022-09-23T23:26:44.158Z,8.50
2022-09-23T23:29:12.243Z,9.07
2022-09-23T23:31:40.058Z,10.73
2022-09-23T23:34:09.145Z,9.63
2022-09-23T23:36:36.794Z,7.73
2022-09-23T23:39:05.754Z,9.63
2022-09-23T23:41:33.507Z,8.30
2022-09-23T23:44:01.653Z,7.30
2022-09-23T23:46:30.696Z,8.50
2022-09-23T23:48:58.452Z,7.53
2022-09-23T23:51:26.313Z,7.13
2022-09-23T23:53:55.133Z,7.67
2022-09-23T23:56:24.647Z,7.60
2022-09-23T23:58:54.585Z,7.97
